createdAt,value
2019-03-10T00:01:46.072Z,101032.20
2019-03-10T00:04:16.243Z,101019.92
2019-03-10T00:06:47.156Z,101015.09
2019-03-10T00:09:18.903Z,101010.57
2019-03-10T00:11:49.079Z,101009.87
2019-03-10T00:14:19.241Z,101003.70
2019-03-10T00:16:51.033Z,101001.04
2019-03-10T00:19:21.492Z,100989.85
2019-03-10T00:21:51.648Z,100994.25
2019-03-10T00:24:21.824Z,100984.19
2019-03-10T00:26:54.346Z,100977.13
2019-03-10T00:29:30.900Z,100970.56
2019-03-10T00:32:01.357Z,100965.07
2019-03-10T00:34:31.521Z,100966.11
2019-03-10T00:37:04.743Z,100960.87
2019-03-10T00:39:56.971Z,100972.00
2019-03-10T00:43:20.858Z,100968.42
2019-03-10T00:46:56.106Z,100966.55
2019-03-10T00:50:07.432Z,100962.41
2019-03-10T00:52:45.350Z,100954.34
2019-03-10T00:55:16.787Z,100940.12
2019-03-10T00:57:47.872Z,100948.52
2019-03-10T01:00:21.806Z,100939.05
2019-03-10T01:02:56.566Z,100943.22
2019-03-10T01:05:30.994Z,100934.83
2019-03-10T01:08:02.138Z,100940.80
2019-03-10T01:10:37.483Z,100945.82
2019-03-10T01:13:10.580Z,100929.24
2019-03-10T01:15:41.361Z,100937.75
2019-03-10T01:18:13.777Z,100932.22
2019-03-10T01:20:44.646Z,100921.42
2019-03-10T01:23:15.569Z,100925.02
2019-03-10T01:25:46.724Z,100909.72
2019-03-10T01:28:20.089Z,100914.28
2019-03-10T01:31:04.289Z,100903.80
2019-03-10T01:33:54.169Z,100898.23
2019-03-10T01:36:25.644Z,100886.21
2019-03-10T01:38:55.815Z,100877.58
2019-03-10T01:44:05.659Z,100846.91
2019-03-10T01:46:36.160Z,100840.38
2019-03-10T01:49:06.359Z,100820.52
2019-03-10T01:51:36.525Z,100820.66
2019-03-10T01:54:07.020Z,100809.70
2019-03-10T01:56:38.137Z,100797.60
2019-03-10T01:59:09.956Z,100802.43
2019-03-10T02:01:42.413Z,100783.91
2019-03-10T02:04:14.229Z,100787.36
2019-03-10T02:06:46.266Z,100767.70
2019-03-10T02:09:17.108Z,100759.48
2019-03-10T02:11:47.646Z,100748.67
2019-03-10T02:14:19.911Z,100738.27
2019-03-10T02:16:53.869Z,100729.95
2019-03-10T02:19:24.066Z,100720.38
2019-03-10T02:21:56.517Z,100705.03
2019-03-10T02:24:29.195Z,100710.30
2019-03-10T02:27:00.961Z,100693.61
2019-03-10T02:29:31.613Z,100691.41
2019-03-10T02:32:07.984Z,100694.06
2019-03-10T02:34:38.422Z,100688.83
2019-03-10T02:37:10.043Z,100683.76
2019-03-10T02:39:40.217Z,100675.86
2019-03-10T02:42:10.727Z,100661.67
2019-03-10T02:44:40.922Z,100653.36
2019-03-10T02:47:13.635Z,100637.99
2019-03-10T02:49:45.423Z,100632.82
2019-03-10T02:52:15.593Z,100619.38
2019-03-10T02:54:47.133Z,100611.50
2019-03-10T02:57:17.747Z,100605.35
2019-03-10T02:59:52.292Z,100596.91
2019-03-10T03:02:22.702Z,100600.55
2019-03-10T03:04:52.898Z,100595.04
2019-03-10T03:07:23.468Z,100587.10
2019-03-10T03:09:54.679Z,100582.69
2019-03-10T03:12:24.837Z,100567.19
2019-03-10T03:14:57.858Z,100565.27
2019-03-10T03:17:30.819Z,100554.22
2019-03-10T03:20:01.712Z,100552.61
2019-03-10T03:22:34.812Z,100544.71
2019-03-10T03:25:07.297Z,100537.28
2019-03-10T03:27:37.450Z,100536.41
2019-03-10T03:30:12.954Z,100540.93
2019-03-10T03:32:50.754Z,100532.33
2019-03-10T03:35:51.983Z,100526.23
2019-03-10T03:38:25.619Z,100524.32
2019-03-10T03:41:03.134Z,100504.48
2019-03-10T03:43:33.684Z,100498.27
2019-03-10T03:46:03.865Z,100498.71
2019-03-10T03:48:34.038Z,100490.33
2019-03-10T03:51:04.518Z,100479.03
2019-03-10T03:53:35.962Z,100469.41
2019-03-10T03:56:07.453Z,100461.83
2019-03-10T03:58:38.452Z,100455.14
2019-03-10T04:01:18.303Z,100459.91
2019-03-10T04:03:49.220Z,100447.00
2019-03-10T04:06:19.397Z,100436.50
2019-03-10T04:08:49.904Z,100425.55
2019-03-10T04:11:21.127Z,100419.39
2019-03-10T04:13:57.357Z,100410.63
2019-03-10T04:16:27.881Z,100408.48
2019-03-10T04:19:03.088Z,100396.61
2019-03-10T04:21:33.246Z,100391.89
2019-03-10T04:24:05.416Z,100382.52
2019-03-10T04:26:35.571Z,100385.41
2019-03-10T04:29:05.714Z,100377.67
2019-03-10T04:31:36.725Z,100375.84
2019-03-10T04:34:21.673Z,100372.62
2019-03-10T04:39:20.784Z,100352.63
2019-03-10T04:41:51.826Z,100344.83
2019-03-10T04:44:25.735Z,100335.66
2019-03-10T04:46:57.295Z,100327.89
2019-03-10T04:49:28.458Z,100318.53
2019-03-10T04:51:58.965Z,100312.02
2019-03-10T04:54:56.746Z,100303.05
2019-03-10T04:57:27.527Z,100296.31
2019-03-10T04:59:57.691Z,100285.39
2019-03-10T05:02:29.525Z,100277.28
2019-03-10T05:05:00.505Z,100273.08
2019-03-10T05:07:33.034Z,100254.56
2019-03-10T05:10:04.823Z,100242.15
2019-03-10T05:12:40.618Z,100235.08
2019-03-10T05:15:11.206Z,100231.56
2019-03-10T05:17:41.403Z,100207.40
2019-03-10T05:20:12.006Z,100193.89
2019-03-10T05:22:42.574Z,100191.48
2019-03-10T05:25:13.187Z,100180.63
2019-03-10T05:27:44.188Z,100170.61
2019-03-10T05:30:15.111Z,100155.55
2019-03-10T05:32:45.310Z,100142.11
2019-03-10T05:35:21.215Z,100120.23
2019-03-10T05:37:53.819Z,100105.86
2019-03-10T05:40:24.705Z,100096.17
2019-03-10T05:42:56.553Z,100088.68
2019-03-10T05:45:26.717Z,100080.95
2019-03-10T05:48:01.258Z,100074.63
2019-03-10T05:50:31.411Z,100068.96
2019-03-10T05:53:01.369Z,100058.06
2019-03-10T05:55:32.330Z,100040.55
2019-03-10T05:58:02.771Z,100033.72
2019-03-10T06:00:42.602Z,100023.78
2019-03-10T06:03:08.394Z,100008.16
2019-03-10T06:05:42.891Z,100018.22
2019-03-10T06:08:13.056Z,100015.34
2019-03-10T06:10:43.623Z,99995.52
2019-03-10T06:13:16.090Z,100001.79
2019-03-10T06:15:46.241Z,99985.87
2019-03-10T06:18:16.402Z,99985.62
2019-03-10T06:20:47.943Z,99981.86
2019-03-10T06:23:18.831Z,99988.88
2019-03-10T06:25:49.108Z,99965.83
2019-03-10T06:28:19.257Z,99980.38
2019-03-10T06:30:49.842Z,99962.16
2019-03-10T06:33:20.457Z,99945.40
2019-03-10T06:35:51.584Z,99935.70
2019-03-10T06:38:21.716Z,99931.80
2019-03-10T06:40:51.968Z,99913.82
2019-03-10T06:43:22.523Z,99904.22
2019-03-10T06:45:52.688Z,99903.00
2019-03-10T06:48:22.858Z,99891.02
2019-03-10T06:50:53.036Z,99881.50
2019-03-10T06:53:23.204Z,99833.05
2019-03-10T06:55:54.507Z,99869.81
2019-03-10T06:58:25.447Z,99831.73
2019-03-10T07:00:56.170Z,99874.36
2019-03-10T07:03:27.871Z,99854.58
2019-03-10T07:05:58.058Z,99833.53
2019-03-10T07:08:29.902Z,99839.61
2019-03-10T07:11:00.753Z,99826.55
2019-03-10T07:13:30.905Z,99805.56
2019-03-10T07:16:03.158Z,99803.17
2019-03-10T07:18:34.481Z,99797.66
2019-03-10T07:21:05.083Z,99796.02
2019-03-10T07:23:35.246Z,99777.16
2019-03-10T07:26:07.633Z,99767.55
2019-03-10T07:28:49.760Z,99765.91
2019-03-10T07:31:42.409Z,99775.05
2019-03-10T07:34:35.595Z,99755.18
2019-03-10T07:37:32.783Z,99766.00
2019-03-10T07:40:27.773Z,99751.08
2019-03-10T07:43:24.757Z,99735.81
2019-03-10T07:46:20.225Z,99738.03
2019-03-10T07:49:09.183Z,99734.44
2019-03-10T07:52:02.786Z,99736.14
2019-03-10T07:54:44.888Z,99728.46
2019-03-10T07:57:33.442Z,99721.16
2019-03-10T08:00:32.469Z,99721.16
2019-03-10T08:03:22.004Z,99720.20
2019-03-10T08:06:03.318Z,99719.94
2019-03-10T08:09:00.417Z,99720.01
2019-03-10T08:11:37.179Z,99715.44
2019-03-10T08:14:26.663Z,99714.98
2019-03-10T08:17:09.994Z,99718.04
2019-03-10T08:20:05.811Z,99713.18
2019-03-10T08:22:54.367Z,99707.39
2019-03-10T08:25:49.778Z,99710.72
2019-03-10T08:28:34.001Z,99704.16
2019-03-10T08:31:39.032Z,99688.64
2019-03-10T08:34:27.496Z,99677.42
2019-03-10T08:37:12.227Z,99685.23
2019-03-10T08:40:12.667Z,99698.84
2019-03-10T08:43:09.405Z,99706.41
2019-03-10T08:46:04.632Z,99706.57
2019-03-10T08:48:46.520Z,99714.48
2019-03-10T08:51:43.369Z,99715.37
2019-03-10T08:54:41.932Z,99701.38
2019-03-10T08:57:46.252Z,99700.52
2019-03-10T09:00:41.696Z,99698.56
2019-03-10T09:03:18.767Z,99689.37
2019-03-10T09:06:07.113Z,99680.28
2019-03-10T09:09:07.688Z,99682.83
2019-03-10T09:11:49.250Z,99694.88
2019-03-10T09:14:41.041Z,99688.86
2019-03-10T09:17:30.546Z,99684.93
2019-03-10T09:20:13.145Z,99691.27
2019-03-10T09:23:08.971Z,99689.88
2019-03-10T09:25:57.581Z,99673.03
2019-03-10T09:28:48.053Z,99669.70
2019-03-10T09:31:33.971Z,99676.50
2019-03-10T09:34:32.313Z,99667.13
2019-03-10T09:37:31.065Z,99665.16
2019-03-10T09:40:20.280Z,99670.62
2019-03-10T09:43:15.692Z,99651.16
2019-03-10T09:46:00.877Z,99635.16
2019-03-10T09:49:05.248Z,99632.58
2019-03-10T09:52:10.500Z,99633.36
2019-03-10T09:55:01.078Z,99630.64
2019-03-10T09:57:49.704Z,99649.20
2019-03-10T10:00:28.891Z,99644.38
2019-03-10T10:03:17.376Z,99638.77
2019-03-10T10:06:01.100Z,99645.08
2019-03-10T10:08:45.114Z,99646.38
2019-03-10T10:11:35.018Z,99634.77
2019-03-10T10:14:24.908Z,99642.92
2019-03-10T10:17:21.181Z,99628.13
2019-03-10T10:20:07.491Z,99619.45
2019-03-10T10:22:56.820Z,99601.62
2019-03-10T10:25:33.604Z,99613.00
2019-03-10T10:28:21.947Z,99610.66
2019-03-10T10:30:59.973Z,99609.08
2019-03-10T10:33:50.303Z,99618.13
2019-03-10T10:36:43.003Z,99637.88
2019-03-10T10:39:30.532Z,99596.66
2019-03-10T10:42:39.720Z,99581.75
2019-03-10T10:45:36.440Z,99598.77
2019-03-10T10:48:27.531Z,99612.73
2019-03-10T10:51:17.744Z,99615.78
2019-03-10T10:54:07.878Z,99619.61
2019-03-10T10:56:56.094Z,99590.23
2019-03-10T10:59:33.276Z,99585.32
2019-03-10T11:02:12.730Z,99600.38
2019-03-10T11:05:01.800Z,99597.87
2019-03-10T11:07:58.139Z,99592.50
2019-03-10T11:10:41.638Z,99587.29
2019-03-10T11:13:21.373Z,99578.16
2019-03-10T11:16:07.241Z,99569.27
2019-03-10T11:19:05.999Z,99568.25
2019-03-10T11:21:54.272Z,99543.30
2019-03-10T11:24:41.197Z,99574.23
2019-03-10T11:27:16.660Z,99555.08
2019-03-10T11:29:55.844Z,99557.00
2019-03-10T11:32:43.365Z,99564.09
2019-03-10T11:35:44.734Z,99545.27
2019-03-10T11:38:40.014Z,99545.16
2019-03-10T11:41:47.954Z,99543.52
2019-03-10T11:44:44.878Z,99537.70
2019-03-10T11:47:30.002Z,99508.63
2019-03-10T11:50:31.221Z,99572.32
2019-03-10T11:53:35.517Z,99575.33
2019-03-10T11:56:25.088Z,99562.39
2019-03-10T11:59:13.707Z,99577.45
2019-03-10T12:01:58.284Z,99586.56
2019-03-10T12:04:46.518Z,99592.36
2019-03-10T12:07:33.733Z,99604.03
2019-03-10T12:10:05.249Z,99614.59
2019-03-10T12:12:35.731Z,99620.59
2019-03-10T12:15:08.527Z,99633.27
2019-03-10T12:17:42.662Z,99620.03
2019-03-10T12:20:12.997Z,99603.64
2019-03-10T12:22:43.142Z,99608.46
2019-03-10T12:25:13.954Z,99617.78
2019-03-10T12:27:44.580Z,99625.11
2019-03-10T12:30:16.221Z,99604.46
2019-03-10T12:32:47.477Z,99602.15
2019-03-10T12:35:18.055Z,99601.89
2019-03-10T12:37:48.761Z,99637.80
2019-03-10T12:40:19.412Z,99610.25
2019-03-10T12:42:50.872Z,99622.27
2019-03-10T12:45:26.137Z,99615.08
2019-03-10T12:47:56.288Z,99623.30
2019-03-10T12:50:27.730Z,99668.33
2019-03-10T12:52:57.901Z,99640.95
2019-03-10T12:55:28.426Z,99649.77
2019-03-10T12:57:58.585Z,99647.25
2019-03-10T13:00:34.135Z,99636.27
2019-03-10T13:03:06.770Z,99619.92
2019-03-10T13:05:42.871Z,99636.70
2019-03-10T13:08:13.706Z,99620.11
2019-03-10T13:10:44.301Z,99635.72
2019-03-10T13:13:15.959Z,99626.61
2019-03-10T13:15:53.417Z,99626.00
2019-03-10T13:18:24.311Z,99625.14
2019-03-10T13:20:57.170Z,99622.63
2019-03-10T13:23:30.184Z,99652.53
2019-03-10T13:26:00.383Z,99650.11
2019-03-10T13:28:30.607Z,99644.88
2019-03-10T13:33:38.301Z,99652.92
2019-03-10T13:36:10.234Z,99630.51
2019-03-10T13:38:41.050Z,99618.38
2019-03-10T13:41:13.178Z,99641.91
2019-03-10T13:43:43.369Z,99635.45
2019-03-10T13:46:16.557Z,99678.47
2019-03-10T13:48:47.094Z,99675.64
2019-03-10T13:51:17.294Z,99677.53
2019-03-10T13:53:48.018Z,99688.25
2019-03-10T13:56:20.178Z,99709.10
2019-03-10T13:58:53.046Z,99696.47
2019-03-10T14:01:25.347Z,99710.72
2019-03-10T14:03:56.014Z,99744.13
2019-03-10T14:06:28.897Z,99744.13
2019-03-10T14:09:01.002Z,99747.02
2019-03-10T14:11:32.857Z,99711.39
2019-03-10T14:14:04.377Z,99751.41
2019-03-10T14:16:35.487Z,99739.72
2019-03-10T14:19:06.919Z,99790.63
2019-03-10T14:21:38.704Z,99778.05
2019-03-10T14:24:09.215Z,99806.56
2019-03-10T14:26:43.830Z,99816.06
2019-03-10T14:29:16.629Z,99791.56
2019-03-10T14:31:46.813Z,99807.59
2019-03-10T14:34:16.997Z,99844.48
2019-03-10T14:36:47.177Z,99844.48
2019-03-10T14:39:19.071Z,99828.92
2019-03-10T14:41:51.721Z,99853.20
2019-03-10T14:44:21.895Z,99860.31
2019-03-10T14:46:53.736Z,99880.83
2019-03-10T14:49:23.913Z,99887.56
2019-03-10T14:51:55.981Z,99876.44
2019-03-10T14:54:26.960Z,99918.14
2019-03-10T14:56:57.202Z,99919.55
2019-03-10T14:59:27.384Z,99916.59
2019-03-10T15:02:03.023Z,99949.89
2019-03-10T15:04:36.709Z,99923.30
2019-03-10T15:07:06.870Z,99955.92
2019-03-10T15:09:37.361Z,99957.20
2019-03-10T15:12:09.900Z,99954.51
2019-03-10T15:14:40.077Z,100017.79
2019-03-10T15:17:11.477Z,100040.84
2019-03-10T15:19:42.091Z,100015.73
2019-03-10T15:22:12.219Z,99994.52
2019-03-10T15:24:42.414Z,100043.42
2019-03-10T15:27:22.827Z,100039.80
2019-03-10T15:29:44.433Z,100054.95
2019-03-10T15:32:15.973Z,100070.02
2019-03-10T15:34:47.723Z,100070.38
2019-03-10T15:37:17.872Z,100076.33
2019-03-10T15:39:48.071Z,100083.77
2019-03-10T15:42:18.548Z,100112.34
2019-03-10T15:44:48.824Z,100099.50
2019-03-10T15:47:21.277Z,100132.11
2019-03-10T15:49:51.966Z,100151.48
2019-03-10T15:52:22.127Z,100158.03
2019-03-10T15:54:52.269Z,100132.09
2019-03-10T15:57:22.434Z,100174.94
2019-03-10T15:59:53.032Z,100176.31
2019-03-10T16:02:23.846Z,100188.78
2019-03-10T16:04:55.841Z,100197.50
2019-03-10T16:07:26.083Z,100213.59
2019-03-10T16:09:56.298Z,100215.05
2019-03-10T16:12:26.511Z,100206.52
2019-03-10T16:14:57.094Z,100245.06
2019-03-10T16:17:27.287Z,100251.70
2019-03-10T16:19:57.460Z,100275.56
2019-03-10T16:22:27.632Z,100282.95
2019-03-10T16:24:57.930Z,100290.81
2019-03-10T16:27:28.565Z,100294.22
2019-03-10T16:29:58.713Z,100324.61
2019-03-10T16:32:28.910Z,100312.34
2019-03-10T16:34:59.069Z,100329.78
2019-03-10T16:37:29.249Z,100333.65
2019-03-10T16:39:59.673Z,100344.70
2019-03-10T16:42:30.421Z,100353.50
2019-03-10T16:45:00.577Z,100351.87
2019-03-10T16:47:32.211Z,100376.58
2019-03-10T16:50:02.377Z,100389.19
2019-03-10T16:52:35.195Z,100394.98
2019-03-10T16:55:06.963Z,100402.58
2019-03-10T16:57:37.605Z,100419.70
2019-03-10T17:00:08.939Z,100426.87
2019-03-10T17:02:39.961Z,100438.38
2019-03-10T17:05:12.411Z,100449.04
2019-03-10T17:07:42.884Z,100448.13
2019-03-10T17:10:14.366Z,100464.36
2019-03-10T17:12:44.526Z,100472.07
2019-03-10T17:15:16.206Z,100472.23
2019-03-10T17:17:46.857Z,100488.30
2019-03-10T17:20:17.598Z,100501.84
2019-03-10T17:22:48.544Z,100509.09
2019-03-10T17:25:19.986Z,100518.46
2019-03-10T17:27:50.903Z,100515.91
2019-03-10T17:30:23.414Z,100524.81
2019-03-10T17:33:02.827Z,100554.99
2019-03-10T17:35:37.251Z,100550.91
2019-03-10T17:38:07.573Z,100557.95
2019-03-10T17:40:40.429Z,100564.23
2019-03-10T17:43:10.797Z,100569.43
2019-03-10T17:45:41.678Z,100580.31
2019-03-10T17:48:13.586Z,100600.47
2019-03-10T17:50:46.119Z,100593.52
2019-03-10T17:53:16.733Z,100608.77
2019-03-10T17:55:47.404Z,100612.39
2019-03-10T17:58:20.942Z,100632.20
2019-03-10T18:00:52.868Z,100639.57
2019-03-10T18:03:23.755Z,100639.72
2019-03-10T18:05:54.495Z,100638.34
2019-03-10T18:08:25.060Z,100644.40
2019-03-10T18:10:55.653Z,100640.34
2019-03-10T18:13:26.222Z,100649.27
2019-03-10T18:15:56.811Z,100632.34
2019-03-10T18:18:27.054Z,100659.09
2019-03-10T18:20:58.284Z,100667.77
2019-03-10T18:23:29.352Z,100675.72
2019-03-10T18:25:59.891Z,100673.29
2019-03-10T18:28:30.637Z,100696.41
2019-03-10T18:31:03.380Z,100694.42
2019-03-10T18:33:34.899Z,100695.61
2019-03-10T18:36:05.060Z,100702.16
2019-03-10T18:38:35.239Z,100710.02
2019-03-10T18:41:05.610Z,100708.13
2019-03-10T18:43:36.234Z,100720.27
2019-03-10T18:46:06.386Z,100737.89
2019-03-10T18:48:39.791Z,100729.59
2019-03-10T18:51:09.942Z,100746.01
2019-03-10T18:53:40.100Z,100740.00
2019-03-10T18:56:12.440Z,100754.46
2019-03-10T18:58:42.591Z,100759.55
2019-03-10T19:01:12.839Z,100758.30
2019-03-10T19:03:43.817Z,100780.42
2019-03-10T19:06:15.664Z,100773.27
2019-03-10T19:08:45.832Z,100779.56
2019-03-10T19:11:16.697Z,100786.37
2019-03-10T19:13:46.850Z,100770.33
2019-03-10T19:16:18.180Z,100796.58
2019-03-10T19:18:48.335Z,100799.98
2019-03-10T19:21:18.521Z,100792.46
2019-03-10T19:23:49.108Z,100808.66
2019-03-10T19:26:19.697Z,100809.54
2019-03-10T19:28:49.871Z,100811.86
2019-03-10T19:31:20.038Z,100804.06
2019-03-10T19:33:50.238Z,100810.28
2019-03-10T19:36:20.747Z,100825.47
2019-03-10T19:38:51.326Z,100816.91
2019-03-10T19:41:23.835Z,100827.30
2019-03-10T19:43:54.019Z,100850.86
2019-03-10T19:46:24.301Z,100876.95
2019-03-10T19:48:56.180Z,100916.05
2019-03-10T19:51:32.773Z,100921.90
2019-03-10T19:54:04.576Z,100914.44
2019-03-10T19:56:34.854Z,100898.02
2019-03-10T19:59:06.018Z,100860.45
2019-03-10T20:01:36.735Z,100872.59
2019-03-10T20:04:07.106Z,100895.72
2019-03-10T20:06:37.280Z,100888.44
2019-03-10T20:09:08.021Z,100882.06
2019-03-10T20:11:39.500Z,100878.81
2019-03-10T20:14:11.195Z,100880.98
2019-03-10T20:16:41.371Z,100877.47
2019-03-10T20:19:11.907Z,100877.97
2019-03-10T20:21:42.058Z,100894.81
2019-03-10T20:24:12.222Z,100907.41
2019-03-10T20:26:42.418Z,100935.47
2019-03-10T20:29:13.291Z,100981.09
2019-03-10T20:31:43.542Z,101070.56
2019-03-10T20:34:34.109Z,101038.52
2019-03-10T20:37:04.585Z,101034.12
2019-03-10T20:39:36.243Z,101057.05
2019-03-10T20:42:06.610Z,101042.16
2019-03-10T20:44:37.258Z,101027.72
2019-03-10T20:47:07.997Z,101024.63
2019-03-10T20:49:41.001Z,101033.77
2019-03-10T20:52:11.175Z,101023.37
2019-03-10T20:54:41.357Z,101020.72
2019-03-10T20:57:12.093Z,101020.14
2019-03-10T20:59:43.364Z,101003.52
2019-03-10T21:02:13.656Z,100985.94
2019-03-10T21:04:43.811Z,100987.88
2019-03-10T21:07:14.525Z,101000.71
2019-03-10T21:09:44.703Z,101000.09
2019-03-10T21:12:15.028Z,101000.44
2019-03-10T21:14:45.225Z,100984.92
2019-03-10T21:17:16.000Z,100980.02
2019-03-10T21:19:46.530Z,100988.31
2019-03-10T21:22:21.007Z,100979.73
2019-03-10T21:24:56.510Z,100985.75
2019-03-10T21:27:27.576Z,100986.23
2019-03-10T21:30:02.979Z,100988.31
2019-03-10T21:32:38.187Z,101004.90
2019-03-10T21:35:17.199Z,100995.45
2019-03-10T21:37:41.703Z,101006.71
2019-03-10T21:40:13.304Z,101012.98
2019-03-10T21:42:44.420Z,101012.98
2019-03-10T21:45:14.571Z,101013.47
2019-03-10T21:47:44.741Z,101024.30
2019-03-10T21:50:15.786Z,101018.91
2019-03-10T21:52:46.589Z,101022.19
2019-03-10T21:55:17.946Z,101024.84
2019-03-10T21:57:49.366Z,101023.91
2019-03-10T22:00:21.764Z,101027.34
2019-03-10T22:03:02.449Z,101021.64
2019-03-10T22:06:35.955Z,101023.20
2019-03-10T22:10:27.673Z,101018.65
2019-03-10T22:12:57.581Z,101021.05
2019-03-10T22:15:28.321Z,101013.82
2019-03-10T22:17:58.526Z,101010.41
2019-03-10T22:20:28.749Z,101019.44
2019-03-10T22:23:59.637Z,101012.01
2019-03-10T22:42:08.760Z,101022.80
2019-03-10T22:44:39.173Z,101017.02
2019-03-10T22:47:09.335Z,101009.87
2019-03-10T22:49:39.483Z,101004.52
2019-03-10T22:52:11.820Z,101006.77
2019-03-10T22:54:41.983Z,101001.97
2019-03-10T22:57:12.510Z,100993.30
2019-03-10T22:59:45.287Z,100990.15
2019-03-10T23:02:15.999Z,100987.52
2019-03-10T23:04:47.376Z,100984.96
2019-03-10T23:07:18.692Z,100979.66
2019-03-10T23:09:49.323Z,100969.81
2019-03-10T23:12:20.165Z,100970.28
2019-03-10T23:14:50.773Z,100966.95
2019-03-10T23:17:21.380Z,100967.78
2019-03-10T23:19:51.532Z,100978.81
2019-03-10T23:22:21.707Z,100973.54
2019-03-10T23:24:52.296Z,100970.98
2019-03-10T23:27:22.581Z,100969.30
2019-03-10T23:29:52.893Z,100965.78
2019-03-10T23:32:24.604Z,100965.31
2019-03-10T23:34:55.323Z,100965.94
2019-03-10T23:37:25.500Z,100962.53
2019-03-10T23:39:55.648Z,100957.69
2019-03-10T23:42:25.886Z,100945.64
2019-03-10T23:44:56.639Z,100950.66
2019-03-10T23:47:27.213Z,100941.13
2019-03-10T23:49:57.380Z,100940.44
2019-03-10T23:52:28.197Z,100936.75
2019-03-10T23:54:58.877Z,100934.98
2019-03-10T23:57:31.183Z,100936.86
